Time;durP1;ratioP1;P1;durP2;ratioP2;P2;SDS_P1;SDS_P2;PMS_P1;PMS_P2;Temp;Humidity;BMP_temperature;BMP_pressure;BME280_temperature;BME280_humidity;BME280_pressure;Samples;Min_cycle;Max_cycle;Signal;HPM_P1;HPM_P2
2023/06/14 00:00:44;;;;;;;17.27;13.10;;;;;;;;;;5015191;28;20036;-58
2023/06/14 00:03:11;;;;;;;18.63;13.55;;;;;;;;;;5015359;28;20037;-60
2023/06/14 00:05:40;;;;;;;21.77;14.65;;;;;;;;;;4997240;28;20083;-58
2023/06/14 00:08:10;;;;;;;19.25;13.70;;;;;;;;;;4997424;28;20042;-60
2023/06/14 00:10:36;;;;;;;18.00;13.63;;;;;;;;;;5015553;28;20033;-58
2023/06/14 00:13:03;;;;;;;18.42;13.68;;;;;;;;;;4997997;28;20030;-60
2023/06/14 00:15:30;;;;;;;16.95;13.23;;;;;;;;;;4997699;28;20022;-58
2023/06/14 00:18:00;;;;;;;19.50;13.23;;;;;;;;;;5015240;28;20501;-60
2023/06/14 00:20:27;;;;;;;18.63;13.25;;;;;;;;;;4997519;28;20740;-58
2023/06/14 00:22:53;;;;;;;17.65;13.50;;;;;;;;;;4997134;28;20081;-58
2023/06/14 00:25:20;;;;;;;18.08;13.25;;;;;;;;;;4996445;28;20460;-59
2023/06/14 00:27:46;;;;;;;20.10;13.10;;;;;;;;;;5014689;28;20030;-59
2023/06/14 00:30:12;;;;;;;17.30;13.13;;;;;;;;;;5014842;28;20101;-57
2023/06/14 00:32:38;;;;;;;22.42;14.50;;;;;;;;;;5014770;28;20021;-58
2023/06/14 00:35:04;;;;;;;19.63;13.27;;;;;;;;;;5014093;28;20032;-59
2023/06/14 00:37:30;;;;;;;17.85;13.57;;;;;;;;;;5014741;28;20101;-56
2023/06/14 00:39:56;;;;;;;17.33;13.02;;;;;;;;;;5014619;28;20038;-60
2023/06/14 00:42:25;;;;;;;19.45;13.00;;;;;;;;;;4996672;28;20065;-58
2023/06/14 00:44:52;;;;;;;18.38;12.23;;;;;;;;;;5013905;28;20018;-59
2023/06/14 00:47:18;;;;;;;20.60;12.68;;;;;;;;;;4996234;28;20482;-59
2023/06/14 00:49:45;;;;;;;20.98;12.95;;;;;;;;;;5014282;28;20542;-58
2023/06/14 00:52:12;;;;;;;17.42;12.63;;;;;;;;;;5014192;28;20466;-60
2023/06/14 00:54:38;;;;;;;19.38;13.13;;;;;;;;;;5013608;28;20037;-57
2023/06/14 00:57:05;;;;;;;17.63;12.82;;;;;;;;;;5013856;28;20060;-61
2023/06/14 00:59:31;;;;;;;19.80;12.98;;;;;;;;;;5013995;28;20072;-59
2023/06/14 01:01:57;;;;;;;19.15;13.30;;;;;;;;;;5014179;28;20022;-57
2023/06/14 01:04:23;;;;;;;17.05;12.80;;;;;;;;;;4996103;28;20061;-55
2023/06/14 01:07:14;;;;;;;16.77;12.60;;;;;;;;;;4997466;28;20033;-58
2023/06/14 01:09:40;;;;;;;18.00;13.13;;;;;;;;;;5067806;22;20053;-56
2023/06/14 01:12:26;;;;;;;21.45;12.73;;;;;;;;;;5035746;28;20040;-58
2023/06/14 01:14:54;;;;;;;18.05;12.60;;;;;;;;;;5052744;28;20021;-57
2023/06/14 01:17:23;;;;;;;21.95;12.57;;;;;;;;;;5035867;28;20040;-60
2023/06/14 01:19:49;;;;;;;19.52;12.65;;;;;;;;;;5070945;28;20021;-58
2023/06/14 01:22:15;;;;;;;18.77;12.35;;;;;;;;;;5073220;28;20037;-60
2023/06/14 01:24:44;;;;;;;17.15;12.82;;;;;;;;;;5072762;28;20105;-58
2023/06/14 01:27:11;;;;;;;20.00;12.90;;;;;;;;;;5073510;28;20039;-60
2023/06/14 01:29:38;;;;;;;21.10;12.68;;;;;;;;;;5073372;28;20081;-56
2023/06/14 01:32:04;;;;;;;19.05;12.30;;;;;;;;;;5080531;28;20074;-59
2023/06/14 01:34:31;;;;;;;17.85;12.68;;;;;;;;;;5072166;28;20020;-60
2023/06/14 01:36:58;;;;;;;18.60;12.75;;;;;;;;;;5073298;28;20021;-59
2023/06/14 01:39:24;;;;;;;16.95;12.63;;;;;;;;;;5073015;28;20017;-58
2023/06/14 01:41:50;;;;;;;17.55;13.07;;;;;;;;;;5072115;28;20108;-59
2023/06/14 01:44:18;;;;;;;17.23;12.52;;;;;;;;;;5072407;28;20492;-60
2023/06/14 01:46:44;;;;;;;19.10;13.30;;;;;;;;;;5073175;28;20412;-60
2023/06/14 01:49:11;;;;;;;18.10;12.68;;;;;;;;;;5055126;28;20048;-59
2023/06/14 01:51:37;;;;;;;16.63;12.43;;;;;;;;;;5072996;28;20032;-59
2023/06/14 01:54:03;;;;;;;18.38;12.93;;;;;;;;;;5072492;28;20382;-55
2023/06/14 01:56:29;;;;;;;16.50;12.52;;;;;;;;;;5072553;28;20020;-59
2023/06/14 01:58:55;;;;;;;16.85;12.57;;;;;;;;;;5072212;28;20654;-59
2023/06/14 02:01:22;;;;;;;17.20;12.43;;;;;;;;;;5072288;28;20027;-59
2023/06/14 02:03:49;;;;;;;18.33;12.43;;;;;;;;;;5072704;28;20587;-59
2023/06/14 02:06:15;;;;;;;18.25;12.73;;;;;;;;;;5072184;28;20040;-59
2023/06/14 02:08:42;;;;;;;17.52;12.70;;;;;;;;;;5072493;28;20443;-63
2023/06/14 02:11:08;;;;;;;16.98;12.32;;;;;;;;;;5054648;28;20031;-57
2023/06/14 02:13:34;;;;;;;17.90;12.90;;;;;;;;;;5072509;28;20032;-58
2023/06/14 02:16:00;;;;;;;17.00;12.50;;;;;;;;;;5071713;28;20028;-58
2023/06/14 02:18:27;;;;;;;17.65;12.80;;;;;;;;;;5072377;28;20036;-60
2023/06/14 02:20:53;;;;;;;17.67;13.05;;;;;;;;;;5072236;28;20434;-60
2023/06/14 02:23:19;;;;;;;17.85;12.60;;;;;;;;;;5072284;28;20420;-60
2023/06/14 02:25:45;;;;;;;18.60;12.68;;;;;;;;;;5071687;28;20059;-59
2023/06/14 02:28:12;;;;;;;17.95;12.07;;;;;;;;;;5072044;28;20021;-55
2023/06/14 02:30:38;;;;;;;19.60;13.20;;;;;;;;;;5072385;28;20488;-57
2023/06/14 02:33:04;;;;;;;18.00;13.07;;;;;;;;;;5054238;28;20025;-59
2023/06/14 02:35:30;;;;;;;17.85;12.90;;;;;;;;;;5071429;28;20033;-55
2023/06/14 02:37:56;;;;;;;18.13;12.52;;;;;;;;;;5072093;28;20039;-60
2023/06/14 02:40:23;;;;;;;17.70;12.02;;;;;;;;;;5071064;28;20032;-59
2023/06/14 02:42:49;;;;;;;17.45;12.80;;;;;;;;;;5072073;28;20020;-62
2023/06/14 02:45:15;;;;;;;17.27;12.40;;;;;;;;;;5053179;28;20074;-58
2023/06/14 02:47:41;;;;;;;18.23;12.30;;;;;;;;;;5053703;28;20031;-57
2023/06/14 02:50:08;;;;;;;18.20;12.73;;;;;;;;;;5071790;28;20020;-57
2023/06/14 02:52:34;;;;;;;17.95;12.57;;;;;;;;;;5071994;28;20021;-57
2023/06/14 02:55:00;;;;;;;22.90;12.93;;;;;;;;;;5071066;28;20036;-59
2023/06/14 02:57:26;;;;;;;18.65;12.30;;;;;;;;;;5071732;28;20120;-59
2023/06/14 02:59:52;;;;;;;20.45;12.68;;;;;;;;;;5053772;28;20045;-60
2023/06/14 03:02:18;;;;;;;18.73;12.50;;;;;;;;;;5071797;28;20078;-57
2023/06/14 03:04:46;;;;;;;17.45;12.75;;;;;;;;;;5071108;28;20033;-56
2023/06/14 03:07:13;;;;;;;18.55;12.52;;;;;;;;;;5053777;28;20020;-57
2023/06/14 03:09:39;;;;;;;19.23;12.70;;;;;;;;;;5071553;28;20037;-59
2023/06/14 03:12:09;;;;;;;16.17;12.40;;;;;;;;;;5071240;28;20078;-56
2023/06/14 03:14:35;;;;;;;18.40;12.20;;;;;;;;;;5053242;28;20031;-57
2023/06/14 03:17:02;;;;;;;15.98;12.25;;;;;;;;;;5071463;28;20032;-57
2023/06/14 03:19:28;;;;;;;20.17;12.45;;;;;;;;;;5071374;28;20035;-59
2023/06/14 03:21:56;;;;;;;16.90;12.10;;;;;;;;;;5071353;28;20032;-59
2023/06/14 03:24:22;;;;;;;17.50;12.02;;;;;;;;;;5052870;28;20116;-57
2023/06/14 03:26:48;;;;;;;20.10;12.35;;;;;;;;;;5071211;28;20056;-58
2023/06/14 03:29:14;;;;;;;18.15;12.38;;;;;;;;;;5071284;28;20177;-57
2023/06/14 03:31:57;;;;;;;15.65;11.77;;;;;;;;;;5071604;28;20029;-59
2023/06/14 03:34:23;;;;;;;17.17;12.02;;;;;;;;;;5070786;28;20401;-57
2023/06/14 03:36:49;;;;;;;18.73;12.27;;;;;;;;;;5071473;28;20476;-60
2023/06/14 03:39:15;;;;;;;18.88;11.48;;;;;;;;;;5071131;28;20086;-59
2023/06/14 03:41:41;;;;;;;17.95;11.60;;;;;;;;;;5069433;28;20028;-59
2023/06/14 03:44:07;;;;;;;16.45;11.57;;;;;;;;;;5070525;28;20052;-59
2023/06/14 03:46:33;;;;;;;23.10;11.95;;;;;;;;;;5071171;28;20044;-56
2023/06/14 03:49:00;;;;;;;20.52;11.85;;;;;;;;;;5071081;28;20020;-57
2023/06/14 03:51:26;;;;;;;16.60;11.55;;;;;;;;;;5070801;28;20128;-58
2023/06/14 03:53:52;;;;;;;19.25;11.88;;;;;;;;;;5070988;28;20027;-58
2023/06/14 03:56:18;;;;;;;17.17;11.77;;;;;;;;;;5070671;28;20033;-59
2023/06/14 03:58:44;;;;;;;16.33;11.35;;;;;;;;;;5053201;28;20119;-58
2023/06/14 04:01:11;;;;;;;17.02;11.68;;;;;;;;;;5071226;28;20020;-56
2023/06/14 04:03:37;;;;;;;18.07;12.00;;;;;;;;;;5071080;28;20485;-60
2023/06/14 04:06:05;;;;;;;19.25;12.27;;;;;;;;;;5052532;28;20021;-59
2023/06/14 04:08:31;;;;;;;19.50;12.45;;;;;;;;;;5070502;28;20032;-60
2023/06/14 04:10:57;;;;;;;17.92;12.20;;;;;;;;;;5052862;28;20592;-56
2023/06/14 04:13:23;;;;;;;17.63;12.38;;;;;;;;;;5070701;28;20044;-59
2023/06/14 04:15:49;;;;;;;17.40;12.05;;;;;;;;;;5069861;28;20020;-57
2023/06/14 04:18:15;;;;;;;19.38;12.02;;;;;;;;;;5070876;28;20062;-58
2023/06/14 04:20:41;;;;;;;18.15;12.18;;;;;;;;;;5070635;28;20561;-56
2023/06/14 04:23:21;;;;;;;18.58;12.60;;;;;;;;;;5072366;28;20111;-58
2023/06/14 04:25:47;;;;;;;18.92;13.23;;;;;;;;;;5073777;28;20130;-54
2023/06/14 04:28:15;;;;;;;16.15;11.90;;;;;;;;;;5056315;28;20115;-59
2023/06/14 04:30:41;;;;;;;17.27;11.98;;;;;;;;;;5055925;28;20132;-58
2023/06/14 04:33:07;;;;;;;19.33;12.75;;;;;;;;;;5074548;28;20028;-61
2023/06/14 04:35:35;;;;;;;18.02;13.40;;;;;;;;;;5055658;28;20027;-55
2023/06/14 04:38:04;;;;;;;17.55;12.48;;;;;;;;;;5074198;28;20032;-55
2023/06/14 04:40:30;;;;;;;;;;;;;;;;;;5073432;28;20056;-60
2023/06/14 04:42:57;;;;;;;18.17;12.55;;;;;;;;;;5074256;28;19955;-59
2023/06/14 04:45:23;;;;;;;21.23;14.35;;;;;;;;;;5073284;28;20024;-59
2023/06/14 04:47:51;;;;;;;18.83;13.75;;;;;;;;;;5073723;28;20431;-60
2023/06/14 04:50:18;;;;;;;18.52;13.27;;;;;;;;;;5055815;28;20412;-59
2023/06/14 04:52:44;;;;;;;20.27;13.38;;;;;;;;;;5073849;28;20119;-59
2023/06/14 04:55:10;;;;;;;16.70;12.32;;;;;;;;;;5073011;28;20064;-59
2023/06/14 04:57:38;;;;;;;17.70;12.95;;;;;;;;;;5073595;28;20044;-60
2023/06/14 05:00:05;;;;;;;18.80;14.15;;;;;;;;;;5055461;28;20028;-59
2023/06/14 05:02:31;;;;;;;17.52;13.40;;;;;;;;;;5073720;28;20033;-58
2023/06/14 05:05:01;;;;;;;18.83;12.98;;;;;;;;;;5072807;28;20033;-60
2023/06/14 05:07:27;;;;;;;18.70;13.57;;;;;;;;;;5075401;28;20151;-60
2023/06/14 05:09:53;;;;;;;18.25;12.90;;;;;;;;;;5071714;28;20119;-56
2023/06/14 05:12:20;;;;;;;18.02;13.38;;;;;;;;;;5075261;28;20029;-60
2023/06/14 05:14:46;;;;;;;18.08;12.88;;;;;;;;;;5072566;28;20020;-60
2023/06/14 05:17:12;;;;;;;17.75;13.77;;;;;;;;;;5073244;28;20032;-58
2023/06/14 05:19:38;;;;;;;22.92;13.50;;;;;;;;;;5072928;28;20028;-59
2023/06/14 05:22:04;;;;;;;17.30;12.70;;;;;;;;;;5072854;28;20431;-60
2023/06/14 05:24:32;;;;;;;18.70;12.52;;;;;;;;;;5072321;28;20067;-58
2023/06/14 05:26:57;;;;;;;19.50;13.10;;;;;;;;;;5073182;28;20455;-60
2023/06/14 05:29:24;;;;;;;19.15;12.68;;;;;;;;;;5073089;28;20020;-60
2023/06/14 05:31:50;;;;;;;20.02;13.80;;;;;;;;;;5072611;28;20021;-55
2023/06/14 05:34:16;;;;;;;20.38;13.20;;;;;;;;;;5072045;28;20040;-59
2023/06/14 05:36:42;;;;;;;18.80;13.00;;;;;;;;;;5072875;28;20480;-58
2023/06/14 05:39:08;;;;;;;16.95;12.60;;;;;;;;;;5072429;28;20033;-59
2023/06/14 05:41:34;;;;;;;18.17;13.10;;;;;;;;;;5071796;28;20025;-58
2023/06/14 05:44:00;;;;;;;18.38;13.07;;;;;;;;;;5071921;28;20021;-58
2023/06/14 05:46:26;;;;;;;17.48;12.90;;;;;;;;;;5072457;28;20077;-58
2023/06/14 05:48:52;;;;;;;18.13;12.30;;;;;;;;;;5054230;28;20024;-59
2023/06/14 05:51:19;;;;;;;17.42;12.70;;;;;;;;;;5071812;28;20028;-58
2023/06/14 05:53:46;;;;;;;17.95;13.10;;;;;;;;;;5053922;28;20051;-56
2023/06/14 05:56:12;;;;;;;19.88;13.02;;;;;;;;;;5071241;28;20024;-57
2023/06/14 05:58:38;;;;;;;18.52;12.75;;;;;;;;;;5071876;28;20029;-58
2023/06/14 06:01:04;;;;;;;19.48;12.80;;;;;;;;;;5071986;28;20512;-58
2023/06/14 06:03:30;;;;;;;18.50;13.45;;;;;;;;;;5053669;28;20078;-59
2023/06/14 06:05:56;;;;;;;16.50;12.32;;;;;;;;;;5070981;28;20100;-59
2023/06/14 06:08:22;;;;;;;17.65;12.73;;;;;;;;;;5071270;28;20052;-60
2023/06/14 06:10:48;;;;;;;19.92;13.10;;;;;;;;;;5071871;28;20377;-60
2023/06/14 06:13:14;;;;;;;18.50;12.52;;;;;;;;;;5070103;28;20016;-59
2023/06/14 06:15:40;;;;;;;19.10;13.30;;;;;;;;;;5069688;28;20511;-59
2023/06/14 06:18:06;;;;;;;16.70;12.27;;;;;;;;;;5053692;28;20112;-55
2023/06/14 06:20:32;;;;;;;17.80;13.00;;;;;;;;;;5054128;28;20024;-56
2023/06/14 06:22:59;;;;;;;16.88;12.63;;;;;;;;;;5071450;28;20491;-55
2023/06/14 06:25:25;;;;;;;16.98;12.93;;;;;;;;;;5071046;28;20024;-59
2023/06/14 06:27:52;;;;;;;17.75;12.45;;;;;;;;;;5071411;28;20025;-58
2023/06/14 06:30:18;;;;;;;18.13;12.45;;;;;;;;;;5071734;28;20020;-60
2023/06/14 06:32:44;;;;;;;21.83;13.90;;;;;;;;;;5071643;28;20173;-56
2023/06/14 06:35:11;;;;;;;21.48;13.45;;;;;;;;;;5052770;28;20115;-57
2023/06/14 06:37:37;;;;;;;17.15;12.75;;;;;;;;;;5072074;28;20032;-60
2023/06/14 06:40:07;;;;;;;17.33;13.05;;;;;;;;;;5053223;28;20021;-58
2023/06/14 06:42:33;;;;;;;18.40;12.77;;;;;;;;;;5052392;28;20443;-58
2023/06/14 06:44:59;;;;;;;17.88;12.50;;;;;;;;;;5070708;28;20017;-57
2023/06/14 06:47:25;;;;;;;17.40;12.57;;;;;;;;;;5053382;28;20471;-58
2023/06/14 06:49:51;;;;;;;16.50;12.13;;;;;;;;;;5071609;28;20397;-57
2023/06/14 06:52:17;;;;;;;19.38;13.15;;;;;;;;;;5071501;28;20025;-58
2023/06/14 06:54:43;;;;;;;18.20;12.85;;;;;;;;;;5070603;28;20028;-58
2023/06/14 06:57:10;;;;;;;17.83;11.45;;;;;;;;;;5071392;28;20031;-61
2023/06/14 06:59:37;;;;;;;17.30;11.75;;;;;;;;;;5052947;28;20044;-59
2023/06/14 07:02:03;;;;;;;17.20;11.73;;;;;;;;;;5071378;28;20162;-59
2023/06/14 07:04:29;;;;;;;15.95;12.43;;;;;;;;;;5070649;28;20152;-58
2023/06/14 07:06:55;;;;;;;16.50;11.65;;;;;;;;;;5053185;28;20020;-58
2023/06/14 07:09:22;;;;;;;17.67;12.10;;;;;;;;;;5048445;23;20072;-59
2023/06/14 07:11:48;;;;;;;16.73;12.48;;;;;;;;;;5016291;28;20044;-57
2023/06/14 07:14:14;;;;;;;16.23;12.25;;;;;;;;;;5004344;28;20364;-55
2023/06/14 07:16:41;;;;;;;15.95;12.73;;;;;;;;;;5013748;28;20045;-60
2023/06/14 07:19:07;;;;;;;17.02;12.40;;;;;;;;;;4997964;28;20030;-57
2023/06/14 07:21:33;;;;;;;16.05;12.13;;;;;;;;;;4970092;28;20034;-55
2023/06/14 07:23:59;;;;;;;16.02;12.02;;;;;;;;;;5002684;28;20076;-59
2023/06/14 07:26:26;;;;;;;17.95;12.68;;;;;;;;;;5011389;28;20531;-58
2023/06/14 07:28:52;;;;;;;16.35;12.57;;;;;;;;;;5002253;28;20057;-60
2023/06/14 07:31:19;;;;;;;20.77;12.38;;;;;;;;;;5005941;28;20036;-60
2023/06/14 07:33:45;;;;;;;17.65;12.70;;;;;;;;;;5011843;28;20038;-59
2023/06/14 07:36:11;;;;;;;18.92;11.98;;;;;;;;;;4993260;28;20022;-60
2023/06/14 07:38:37;;;;;;;15.70;12.50;;;;;;;;;;5011216;28;20057;-60
2023/06/14 07:41:03;;;;;;;17.77;12.35;;;;;;;;;;5006241;28;20022;-57
2023/06/14 07:43:29;;;;;;;16.35;12.23;;;;;;;;;;4992140;28;20054;-56
2023/06/14 07:45:56;;;;;;;18.88;13.05;;;;;;;;;;4990580;28;20023;-60
2023/06/14 07:48:22;;;;;;;18.30;12.27;;;;;;;;;;4991679;28;20033;-58
2023/06/14 07:50:48;;;;;;;17.52;13.20;;;;;;;;;;4992179;28;20034;-61
2023/06/14 07:53:15;;;;;;;19.00;13.10;;;;;;;;;;4992565;28;20026;-60
2023/06/14 07:55:42;;;;;;;16.60;12.70;;;;;;;;;;4973962;28;20053;-54
2023/06/14 07:58:08;;;;;;;16.02;12.98;;;;;;;;;;4994790;28;20097;-57
2023/06/14 08:00:34;;;;;;;17.10;12.60;;;;;;;;;;4993966;28;20113;-60
2023/06/14 08:03:00;;;;;;;17.02;13.32;;;;;;;;;;5014817;28;20022;-60
2023/06/14 08:05:27;;;;;;;15.77;12.77;;;;;;;;;;5014184;28;20022;-60
2023/06/14 08:07:53;;;;;;;19.48;13.68;;;;;;;;;;5015161;28;20050;-60
2023/06/14 08:10:19;;;;;;;16.98;13.70;;;;;;;;;;5015031;28;20041;-61
2023/06/14 08:12:45;;;;;;;16.98;13.20;;;;;;;;;;5014935;28;20709;-64
2023/06/14 08:15:11;;;;;;;16.48;12.93;;;;;;;;;;5014232;28;20115;-61
2023/06/14 08:17:37;;;;;;;16.60;13.43;;;;;;;;;;5014872;28;20486;-62
2023/06/14 08:20:05;;;;;;;17.10;13.07;;;;;;;;;;5013350;28;20032;-61
2023/06/14 08:22:33;;;;;;;18.17;13.18;;;;;;;;;;5004681;28;20049;-60
2023/06/14 08:25:00;;;;;;;18.70;12.63;;;;;;;;;;4994029;28;20610;-59
2023/06/14 08:27:27;;;;;;;17.20;12.95;;;;;;;;;;4977615;28;20534;-52
2023/06/14 08:29:53;;;;;;;18.55;12.98;;;;;;;;;;4993972;28;20023;-59
2023/06/14 08:32:19;;;;;;;15.98;12.90;;;;;;;;;;4995167;28;20402;-61
2023/06/14 08:34:45;;;;;;;15.75;12.30;;;;;;;;;;4994192;28;20026;-60
2023/06/14 08:37:11;;;;;;;18.42;13.43;;;;;;;;;;4994777;28;20050;-59
2023/06/14 08:39:37;;;;;;;17.00;12.15;;;;;;;;;;4994663;28;20442;-59
2023/06/14 08:42:03;;;;;;;16.30;12.65;;;;;;;;;;4977065;28;20038;-59
2023/06/14 08:44:30;;;;;;;20.52;12.82;;;;;;;;;;4993414;28;20088;-59
2023/06/14 08:46:59;;;;;;;15.52;12.18;;;;;;;;;;4977380;28;20018;-61
2023/06/14 08:49:26;;;;;;;18.02;12.63;;;;;;;;;;4976967;28;20023;-62
2023/06/14 08:51:57;;;;;;;17.35;12.68;;;;;;;;;;4994617;28;20065;-60
2023/06/14 08:54:24;;;;;;;20.13;13.38;;;;;;;;;;4994078;28;20449;-60
2023/06/14 08:56:52;;;;;;;17.50;12.25;;;;;;;;;;4993896;28;20030;-57
2023/06/14 08:59:18;;;;;;;18.02;12.20;;;;;;;;;;4994241;28;20030;-60
2023/06/14 09:01:47;;;;;;;15.65;12.27;;;;;;;;;;4994217;28;20122;-62
2023/06/14 09:04:13;;;;;;;17.73;11.70;;;;;;;;;;4993452;28;20046;-61
2023/06/14 09:06:40;;;;;;;16.60;11.95;;;;;;;;;;4993778;28;20399;-62
2023/06/14 09:09:07;;;;;;;15.95;12.40;;;;;;;;;;5023160;28;20030;-54
2023/06/14 09:11:33;;;;;;;15.50;12.23;;;;;;;;;;5033075;28;20049;-59
2023/06/14 09:13:59;;;;;;;17.25;12.20;;;;;;;;;;5032857;28;20036;-58
2023/06/14 09:16:26;;;;;;;17.27;12.43;;;;;;;;;;5033435;28;20449;-61
2023/06/14 09:18:52;;;;;;;16.73;12.55;;;;;;;;;;5033571;28;20087;-61
2023/06/14 09:21:18;;;;;;;16.70;12.13;;;;;;;;;;5033676;28;20033;-59
2023/06/14 09:23:46;;;;;;;15.90;11.95;;;;;;;;;;5033838;28;20145;-60
2023/06/14 09:26:16;;;;;;;15.83;12.50;;;;;;;;;;5033100;28;20026;-59
2023/06/14 09:28:43;;;;;;;15.68;12.27;;;;;;;;;;5033327;28;20026;-60
2023/06/14 09:31:11;;;;;;;24.70;12.27;;;;;;;;;;5033228;28;20026;-60
2023/06/14 09:33:37;;;;;;;15.98;12.52;;;;;;;;;;5033221;28;20276;-60
2023/06/14 09:36:04;;;;;;;17.67;12.68;;;;;;;;;;5017492;28;20034;-54
2023/06/14 09:38:30;;;;;;;16.05;12.13;;;;;;;;;;4992244;28;20050;-60
2023/06/14 09:40:59;;;;;;;15.50;12.10;;;;;;;;;;5009018;28;20084;-59
2023/06/14 09:43:27;;;;;;;17.60;11.73;;;;;;;;;;4993960;28;20025;-61
2023/06/14 09:45:53;;;;;;;15.70;11.93;;;;;;;;;;4994446;28;20490;-60
2023/06/14 09:48:19;;;;;;;19.42;12.68;;;;;;;;;;5012893;28;20029;-62
2023/06/14 09:50:48;;;;;;;17.90;12.50;;;;;;;;;;5008836;28;20026;-62
2023/06/14 09:53:15;;;;;;;17.08;12.20;;;;;;;;;;5012493;28;20014;-59
2023/06/14 09:55:41;;;;;;;16.33;12.68;;;;;;;;;;4993932;28;20446;-62
2023/06/14 09:58:08;;;;;;;16.92;12.57;;;;;;;;;;5012968;28;20026;-62
2023/06/14 10:00:34;;;;;;;18.23;12.43;;;;;;;;;;5011619;28;20017;-62
2023/06/14 10:03:11;;;;;;;17.80;12.45;;;;;;;;;;5012727;28;20029;-61
2023/06/14 10:05:37;;;;;;;21.25;12.52;;;;;;;;;;4994276;28;20022;-61
2023/06/14 10:08:10;;;;;;;18.23;12.35;;;;;;;;;;5012396;28;20014;-61
2023/06/14 10:10:39;;;;;;;16.67;12.05;;;;;;;;;;5007900;28;20132;-60
2023/06/14 10:13:06;;;;;;;16.30;11.98;;;;;;;;;;5006439;28;20068;-60
2023/06/14 10:15:50;;;;;;;17.75;12.30;;;;;;;;;;5010504;28;20022;-60
2023/06/14 10:18:23;;;;;;;19.83;12.20;;;;;;;;;;4993175;28;20018;-59
2023/06/14 10:21:08;;;;;;;17.13;12.70;;;;;;;;;;4974480;28;20046;-61
2023/06/14 10:23:38;;;;;;;17.95;12.63;;;;;;;;;;4975242;28;20027;-60
2023/06/14 10:26:04;;;;;;;17.35;12.93;;;;;;;;;;5004251;28;20030;-59
2023/06/14 10:28:30;;;;;;;17.40;12.95;;;;;;;;;;5012293;28;20125;-60
2023/06/14 10:31:22;;;;;;;16.75;12.10;;;;;;;;;;5012264;28;20022;-60
2023/06/14 10:33:50;;;;;;;16.75;12.23;;;;;;;;;;5010568;28;20042;-58
2023/06/14 10:36:22;;;;;;;18.63;12.55;;;;;;;;;;5011805;28;20026;-60
2023/06/14 10:39:08;;;;;;;16.88;12.95;;;;;;;;;;5012435;28;20320;-60
2023/06/14 10:41:40;;;;;;;18.02;13.20;;;;;;;;;;4994856;28;20029;-61
2023/06/14 10:44:15;;;;;;;15.88;12.88;;;;;;;;;;5011761;28;20371;-60
2023/06/14 10:46:48;;;;;;;18.48;13.15;;;;;;;;;;5012360;28;20098;-61
2023/06/14 10:49:20;;;;;;;16.88;12.63;;;;;;;;;;4994219;28;20021;-59
2023/06/14 10:51:51;;;;;;;17.13;12.65;;;;;;;;;;5011920;28;20402;-60
2023/06/14 10:54:17;;;;;;;16.30;12.60;;;;;;;;;;4993761;28;20053;-58
2023/06/14 10:56:50;;;;;;;17.60;12.85;;;;;;;;;;4994449;28;20128;-60
2023/06/14 10:59:17;;;;;;;17.35;12.63;;;;;;;;;;4994236;28;20628;-60
2023/06/14 11:02:02;;;;;;;17.60;13.10;;;;;;;;;;5011701;28;20034;-61
2023/06/14 11:04:34;;;;;;;16.27;12.82;;;;;;;;;;5011271;28;20022;-59
2023/06/14 11:07:19;;;;;;;16.52;12.82;;;;;;;;;;5012158;28;20022;-61
2023/06/14 11:09:51;;;;;;;16.17;12.95;;;;;;;;;;4992061;28;20042;-60
2023/06/14 11:12:18;;;;;;;15.80;12.57;;;;;;;;;;4992551;28;20026;-61
2023/06/14 11:14:47;;;;;;;18.90;12.35;;;;;;;;;;4994203;28;20026;-62
2023/06/14 11:17:13;;;;;;;17.90;12.52;;;;;;;;;;4992198;28;20022;-59
2023/06/14 11:19:39;;;;;;;15.70;12.40;;;;;;;;;;4992449;28;20037;-62
2023/06/14 11:22:05;;;;;;;16.60;12.70;;;;;;;;;;4992163;28;20054;-61
2023/06/14 11:24:33;;;;;;;18.23;14.02;;;;;;;;;;4991963;28;20050;-59
2023/06/14 11:26:59;;;;;;;19.75;13.07;;;;;;;;;;4991646;28;20487;-59
2023/06/14 11:29:25;;;;;;;17.10;13.63;;;;;;;;;;4992734;28;20026;-62
2023/06/14 11:31:51;;;;;;;16.40;13.48;;;;;;;;;;4992632;28;20038;-57
2023/06/14 11:34:17;;;;;;;17.23;13.32;;;;;;;;;;4995816;28;20022;-60
2023/06/14 11:36:45;;;;;;;16.70;13.80;;;;;;;;;;4995990;28;20105;-60
2023/06/14 11:39:12;;;;;;;20.92;13.98;;;;;;;;;;4996021;28;20023;-60
2023/06/14 11:41:38;;;;;;;17.00;13.50;;;;;;;;;;4996049;28;20034;-60
2023/06/14 11:44:05;;;;;;;19.35;13.88;;;;;;;;;;4994168;28;20046;-60
2023/06/14 11:46:31;;;;;;;18.55;14.15;;;;;;;;;;4995883;28;20022;-62
2023/06/14 11:48:58;;;;;;;18.88;14.23;;;;;;;;;;4995530;28;20027;-61
2023/06/14 11:51:24;;;;;;;18.23;14.32;;;;;;;;;;4994690;28;20546;-60
2023/06/14 11:53:50;;;;;;;17.88;15.00;;;;;;;;;;4995568;28;20037;-60
2023/06/14 11:56:16;;;;;;;17.65;13.73;;;;;;;;;;4993890;28;20121;-61
2023/06/14 11:58:45;;;;;;;21.08;15.63;;;;;;;;;;4994701;28;20041;-64
2023/06/14 12:01:15;;;;;;;18.90;13.98;;;;;;;;;;4995682;28;20018;-57
2023/06/14 12:03:48;;;;;;;17.05;14.45;;;;;;;;;;4995404;28;20027;-58
2023/06/14 12:06:14;;;;;;;19.88;13.60;;;;;;;;;;5003641;28;20382;-57
2023/06/14 12:08:41;;;;;;;17.90;14.25;;;;;;;;;;4997623;28;20022;-57
2023/06/14 12:11:08;;;;;;;17.48;15.10;;;;;;;;;;5014899;28;20036;-58
2023/06/14 12:13:34;;;;;;;17.02;14.13;;;;;;;;;;5015260;28;20033;-58
2023/06/14 12:16:01;;;;;;;16.98;13.82;;;;;;;;;;4997328;28;20026;-57
2023/06/14 12:18:36;;;;;;;17.90;13.85;;;;;;;;;;5015234;28;20516;-56
2023/06/14 12:21:06;;;;;;;19.38;13.38;;;;;;;;;;5015007;28;20556;-56
2023/06/14 12:23:47;;;;;;;17.67;13.50;;;;;;;;;;5015214;28;20026;-59
2023/06/14 12:26:14;;;;;;;21.55;13.45;;;;;;;;;;5014457;28;20036;-55
2023/06/14 12:28:42;;;;;;;16.63;13.73;;;;;;;;;;5015123;28;20065;-56
2023/06/14 12:31:08;;;;;;;19.80;13.90;;;;;;;;;;5015160;28;20045;-59
2023/06/14 12:33:34;;;;;;;19.52;14.10;;;;;;;;;;5014701;28;20026;-59
2023/06/14 12:36:00;;;;;;;18.08;14.35;;;;;;;;;;5013431;28;20478;-58
2023/06/14 12:38:26;;;;;;;16.90;13.85;;;;;;;;;;4996787;28;20025;-59
2023/06/14 12:40:53;;;;;;;17.25;14.20;;;;;;;;;;5014714;28;20022;-58
2023/06/14 12:43:19;;;;;;;17.10;14.68;;;;;;;;;;4995950;28;20649;-58
2023/06/14 12:45:45;;;;;;;16.33;13.65;;;;;;;;;;5013207;28;20041;-57
2023/06/14 12:48:11;;;;;;;17.08;13.82;;;;;;;;;;5014220;28;20018;-54
2023/06/14 12:50:37;;;;;;;17.65;13.65;;;;;;;;;;5014117;28;20033;-55
2023/06/14 12:53:03;;;;;;;19.15;14.15;;;;;;;;;;4996989;28;20497;-59
2023/06/14 12:55:29;;;;;;;16.50;13.20;;;;;;;;;;5014751;28;20033;-56
2023/06/14 12:57:55;;;;;;;17.42;13.65;;;;;;;;;;5014385;28;20026;-54
2023/06/14 13:00:21;;;;;;;16.85;13.95;;;;;;;;;;4662787;28;10000002;-55
2023/06/14 13:02:47;;;;;;;16.10;13.45;;;;;;;;;;5010430;28;20033;-57
2023/06/14 13:05:13;;;;;;;16.48;13.75;;;;;;;;;;4992277;28;20108;-57
2023/06/14 13:07:39;;;;;;;16.20;13.15;;;;;;;;;;5010904;28;20084;-56
2023/06/14 13:10:08;;;;;;;16.98;13.80;;;;;;;;;;5013461;28;20406;-59
2023/06/14 13:12:34;;;;;;;16.77;14.10;;;;;;;;;;5010532;28;20030;-59
2023/06/14 13:15:00;;;;;;;16.65;13.18;;;;;;;;;;5010061;28;20057;-57
2023/06/14 13:17:26;;;;;;;19.23;13.43;;;;;;;;;;5010655;28;20036;-59
2023/06/14 13:19:52;;;;;;;17.77;14.55;;;;;;;;;;5010412;28;20030;-60
2023/06/14 13:22:19;;;;;;;17.35;13.75;;;;;;;;;;5010330;28;20098;-57
2023/06/14 13:24:44;;;;;;;16.48;13.30;;;;;;;;;;5008673;28;20133;-59
2023/06/14 13:27:10;;;;;;;16.75;14.00;;;;;;;;;;5009974;28;20034;-55
2023/06/14 13:29:37;;;;;;;17.58;13.80;;;;;;;;;;5010188;28;20103;-54
2023/06/14 13:32:03;;;;;;;16.48;13.35;;;;;;;;;;5009882;28;20030;-63
2023/06/14 13:34:29;;;;;;;17.75;13.43;;;;;;;;;;5009179;28;20115;-58
2023/06/14 13:36:55;;;;;;;19.27;13.88;;;;;;;;;;5010233;28;20514;-58
2023/06/14 13:39:22;;;;;;;18.48;13.77;;;;;;;;;;5011539;28;20026;-58
2023/06/14 13:41:48;;;;;;;17.90;14.07;;;;;;;;;;5006068;28;20022;-57
2023/06/14 13:44:16;;;;;;;17.73;14.45;;;;;;;;;;5032294;28;20157;-54
2023/06/14 13:46:42;;;;;;;18.85;13.90;;;;;;;;;;5032767;28;20029;-57
2023/06/14 13:49:08;;;;;;;18.55;14.15;;;;;;;;;;5033171;28;20172;-59
2023/06/14 13:51:34;;;;;;;17.95;14.85;;;;;;;;;;5014911;28;20022;-57
2023/06/14 13:54:01;;;;;;;18.83;14.60;;;;;;;;;;5008166;28;20029;-57
2023/06/14 13:56:27;;;;;;;16.92;13.95;;;;;;;;;;5012594;28;20025;-56
2023/06/14 13:58:53;;;;;;;16.65;14.27;;;;;;;;;;4994005;28;20034;-59
2023/06/14 14:01:22;;;;;;;19.13;14.50;;;;;;;;;;5002989;28;20025;-55
2023/06/14 14:03:49;;;;;;;16.00;14.13;;;;;;;;;;5013381;28;20516;-56
2023/06/14 14:06:15;;;;;;;18.70;14.25;;;;;;;;;;5012448;28;20049;-53
2023/06/14 14:08:42;;;;;;;17.38;13.65;;;;;;;;;;5011838;28;20044;-58
2023/06/14 14:11:08;;;;;;;17.25;13.80;;;;;;;;;;5012501;28;20521;-59
2023/06/14 14:13:36;;;;;;;16.02;13.50;;;;;;;;;;5012790;28;20097;-57
2023/06/14 14:16:03;;;;;;;16.73;13.85;;;;;;;;;;5012084;28;20042;-56